createdAt,value
2024-03-01T00:01:45.164Z,8.06
2024-03-01T00:04:13.518Z,8.04
2024-03-01T00:06:43.763Z,8.03
2024-03-01T00:09:11.697Z,8.01
2024-03-01T00:11:39.769Z,8.01
2024-03-01T00:14:07.923Z,7.98
2024-03-01T00:16:35.839Z,7.96
2024-03-01T00:19:04.052Z,7.93
2024-03-01T00:21:31.959Z,7.93
2024-03-01T00:24:01.111Z,7.90
2024-03-01T00:26:29.260Z,7.91
2024-03-01T00:28:57.060Z,7.91
2024-03-01T00:31:25.064Z,7.91
2024-03-01T00:33:53.387Z,7.92
2024-03-01T00:36:21.428Z,7.93
2024-03-01T00:38:49.286Z,7.94
2024-03-01T00:41:18.788Z,7.95
2024-03-01T00:43:46.671Z,7.95
2024-03-01T00:46:14.681Z,7.95
2024-03-01T00:48:42.848Z,7.95
2024-03-01T00:51:10.718Z,7.95
2024-03-01T00:53:38.666Z,7.94
2024-03-01T00:56:07.396Z,7.93
2024-03-01T00:58:36.752Z,7.92
2024-03-01T01:01:04.968Z,7.92
2024-03-01T01:03:33.509Z,7.90
2024-03-01T01:06:01.811Z,7.87
2024-03-01T01:08:30.055Z,7.87
2024-03-01T01:11:03.814Z,7.88
2024-03-01T01:13:38.535Z,7.88
2024-03-01T01:16:07.803Z,7.86
2024-03-01T01:18:42.148Z,7.82
2024-03-01T01:21:10.614Z,7.80
2024-03-01T01:23:38.615Z,7.79
2024-03-01T01:26:06.497Z,7.81
2024-03-01T01:28:34.641Z,7.80
2024-03-01T01:31:03.905Z,7.79
2024-03-01T01:33:31.737Z,7.79
2024-03-01T01:35:59.843Z,7.79
2024-03-01T01:38:27.708Z,7.79
2024-03-01T01:40:55.589Z,7.76
2024-03-01T01:43:23.848Z,7.74
2024-03-01T01:45:51.784Z,7.71
2024-03-01T01:48:20.978Z,7.66
2024-03-01T01:50:49.188Z,7.64
2024-03-01T01:53:21.719Z,7.61
2024-03-01T01:55:55.567Z,7.59
2024-03-01T01:58:23.883Z,7.58
2024-03-01T02:00:52.418Z,7.57
2024-03-01T02:03:23.591Z,7.56
2024-03-01T02:05:52.021Z,7.53
2024-03-01T02:08:20.207Z,7.47
2024-03-01T02:10:50.307Z,7.40
2024-03-01T02:13:24.134Z,7.36
2024-03-01T02:15:52.862Z,7.31
2024-03-01T02:18:23.095Z,7.29
2024-03-01T02:20:58.957Z,7.26
2024-03-01T02:23:28.575Z,7.26
2024-03-01T02:25:56.865Z,7.19
2024-03-01T02:28:24.828Z,7.14
2024-03-01T02:30:53.405Z,7.11
2024-03-01T02:33:21.769Z,7.05
2024-03-01T02:35:49.731Z,7.02
2024-03-01T02:38:17.999Z,7.02
2024-03-01T02:40:47.222Z,6.99
2024-03-01T02:43:15.199Z,6.98
2024-03-01T02:45:43.362Z,6.94
2024-03-01T02:48:11.298Z,6.91
2024-03-01T02:50:39.237Z,6.91
2024-03-01T02:53:08.330Z,6.88
2024-03-01T02:55:36.321Z,6.89
2024-03-01T02:58:06.500Z,6.90
2024-03-01T03:00:35.267Z,6.94
2024-03-01T03:03:03.128Z,6.98
2024-03-01T03:05:31.034Z,7.00
2024-03-01T03:07:59.820Z,7.01
2024-03-01T03:10:28.152Z,7.03
2024-03-01T03:12:56.029Z,7.01
2024-03-01T03:15:26.258Z,6.98
2024-03-01T03:17:54.208Z,6.95
2024-03-01T03:20:22.778Z,6.93
2024-03-01T03:22:50.933Z,6.90
2024-03-01T03:25:18.864Z,6.85
2024-03-01T03:27:46.877Z,6.81
2024-03-01T03:30:15.210Z,6.78
2024-03-01T03:32:44.525Z,6.77
2024-03-01T03:35:12.693Z,6.73
2024-03-01T03:37:40.765Z,6.69
2024-03-01T03:40:15.764Z,6.66
2024-03-01T03:42:44.915Z,6.59
2024-03-01T03:45:13.317Z,6.50
2024-03-01T03:47:41.223Z,6.49
2024-03-01T03:50:11.194Z,6.48
2024-03-01T03:52:39.372Z,6.48
2024-03-01T03:55:08.251Z,6.48
2024-03-01T03:57:37.196Z,6.47
2024-03-01T04:00:09.818Z,6.44
2024-03-01T04:02:38.192Z,6.43
2024-03-01T04:05:07.889Z,6.44
2024-03-01T04:07:37.792Z,6.42
2024-03-01T04:10:07.518Z,6.38
2024-03-01T04:12:37.199Z,6.41
2024-03-01T04:15:06.793Z,6.42
2024-03-01T04:17:35.795Z,6.40
2024-03-01T04:20:05.382Z,6.43
2024-03-01T04:22:36.410Z,6.44
2024-03-01T04:25:07.172Z,6.42
2024-03-01T04:27:35.814Z,6.41
2024-03-01T04:30:03.879Z,6.40
2024-03-01T04:32:31.912Z,6.36
2024-03-01T04:35:00.257Z,6.32
2024-03-01T04:37:28.748Z,6.28
2024-03-01T04:39:56.828Z,6.26
2024-03-01T04:42:26.888Z,6.25
2024-03-01T04:44:54.838Z,6.25
2024-03-01T04:47:22.734Z,6.22
2024-03-01T04:49:51.111Z,6.10
2024-03-01T04:52:19.069Z,6.08
2024-03-01T04:54:48.562Z,6.05
2024-03-01T04:57:17.367Z,6.08
2024-03-01T04:59:46.613Z,6.05
2024-03-01T05:02:14.480Z,6.02
2024-03-01T05:04:44.726Z,6.02
2024-03-01T05:07:12.924Z,6.02
2024-03-01T05:09:44.168Z,6.00
2024-03-01T05:12:15.225Z,5.98
2024-03-01T05:14:43.269Z,5.95
2024-03-01T05:17:14.791Z,5.96
2024-03-01T05:19:43.019Z,5.99
2024-03-01T05:22:14.453Z,6.01
2024-03-01T05:24:42.907Z,6.04
2024-03-01T05:27:13.949Z,6.04
2024-03-01T05:29:42.393Z,6.07
2024-03-01T05:32:10.557Z,6.09
2024-03-01T05:34:40.154Z,6.10
2024-03-01T05:37:08.555Z,6.11
2024-03-01T05:39:36.505Z,6.11
2024-03-01T05:42:07.393Z,6.13
2024-03-01T05:44:35.601Z,6.15
2024-03-01T05:47:04.381Z,6.15
2024-03-01T05:49:32.327Z,6.15
2024-03-01T05:52:01.851Z,6.11
2024-03-01T05:54:30.879Z,6.07
2024-03-01T05:56:59.344Z,6.09
2024-03-01T05:59:27.528Z,6.11
2024-03-01T06:01:55.623Z,6.12
2024-03-01T06:04:23.858Z,6.16
2024-03-01T06:06:51.752Z,6.20
2024-03-01T06:09:21.377Z,6.21
2024-03-01T06:11:51.976Z,6.22
2024-03-01T06:14:20.163Z,6.23
2024-03-01T06:16:48.917Z,6.24
2024-03-01T06:19:18.329Z,6.26
2024-03-01T06:21:46.399Z,6.30
2024-03-01T06:24:15.351Z,6.32
2024-03-01T06:26:44.750Z,6.31
2024-03-01T06:29:12.640Z,6.36
2024-03-01T06:31:40.703Z,6.45
2024-03-01T06:34:08.939Z,6.55
2024-03-01T06:36:36.970Z,6.63
2024-03-01T06:39:05.146Z,6.69
2024-03-01T06:41:33.251Z,6.74
2024-03-01T06:44:02.706Z,6.77
2024-03-01T06:46:31.057Z,6.78
2024-03-01T06:49:00.219Z,6.82
2024-03-01T06:51:28.102Z,6.88
2024-03-01T06:53:55.970Z,6.95
2024-03-01T06:56:24.406Z,7.03
2024-03-01T06:58:52.346Z,7.08
2024-03-01T07:01:21.721Z,7.17
2024-03-01T07:03:49.932Z,7.21
2024-03-01T07:06:17.804Z,7.32
2024-03-01T07:08:45.668Z,7.40
2024-03-01T07:11:13.768Z,7.50
2024-03-01T07:13:41.645Z,7.58
2024-03-01T07:16:09.558Z,7.71
2024-03-01T07:18:39.111Z,7.83
2024-03-01T07:21:08.748Z,7.95
2024-03-01T07:23:37.464Z,8.08
2024-03-01T07:26:07.424Z,8.20
2024-03-01T07:28:36.152Z,8.33
2024-03-01T07:31:05.094Z,8.50
2024-03-01T07:33:33.380Z,8.63
2024-03-01T07:36:02.658Z,8.72
2024-03-01T07:38:30.540Z,8.85
2024-03-01T07:40:58.618Z,8.94
2024-03-01T07:43:26.640Z,9.09
2024-03-01T07:45:54.902Z,9.17
2024-03-01T07:48:23.075Z,9.23
2024-03-01T07:50:50.936Z,9.19
2024-03-01T07:53:20.145Z,9.30
2024-03-01T07:55:48.542Z,9.26
2024-03-01T07:58:16.794Z,9.41
2024-03-01T08:00:44.842Z,9.48
2024-03-01T08:03:13.159Z,9.42
2024-03-01T08:05:41.748Z,9.46
2024-03-01T08:08:11.122Z,9.52
2024-03-01T08:10:43.866Z,9.64
2024-03-01T08:13:12.903Z,9.68
2024-03-01T08:15:41.940Z,9.72
2024-03-01T08:18:18.918Z,9.76
2024-03-01T08:21:07.293Z,9.82
2024-03-01T08:23:39.571Z,9.97
2024-03-01T08:26:14.434Z,10.07
2024-03-01T08:28:45.525Z,10.12
2024-03-01T08:31:23.386Z,10.35
2024-03-01T08:33:59.663Z,10.52
2024-03-01T08:36:28.554Z,10.59
2024-03-01T08:39:12.554Z,10.63
2024-03-01T08:41:44.047Z,10.62
2024-03-01T08:44:51.138Z,10.65
2024-03-01T08:47:26.757Z,10.83
2024-03-01T08:50:25.055Z,10.94
2024-03-01T08:52:53.880Z,11.19
2024-03-01T08:55:42.122Z,11.43
2024-03-01T08:58:18.565Z,11.51
2024-03-01T09:00:49.945Z,11.45
2024-03-01T09:03:25.068Z,11.59
2024-03-01T09:05:56.392Z,11.59
2024-03-01T09:08:26.523Z,11.75
2024-03-01T09:10:56.771Z,11.91
2024-03-01T09:13:27.980Z,11.98
2024-03-01T09:15:58.209Z,12.06
2024-03-01T09:18:43.726Z,12.12
2024-03-01T09:21:45.241Z,12.15
2024-03-01T09:24:17.250Z,12.08
2024-03-01T09:26:46.188Z,12.13
2024-03-01T09:29:37.049Z,12.15
2024-03-01T09:32:06.538Z,12.17
2024-03-01T09:34:37.001Z,12.24
2024-03-01T09:37:07.739Z,12.33
2024-03-01T09:39:36.265Z,12.43
2024-03-01T09:42:38.080Z,12.58
2024-03-01T09:45:40.482Z,12.79
2024-03-01T09:48:28.926Z,12.84
2024-03-01T09:51:13.693Z,12.91
2024-03-01T09:54:02.741Z,13.02
2024-03-01T09:56:39.130Z,13.14
2024-03-01T09:59:15.210Z,13.22
2024-03-01T10:01:49.994Z,13.32
2024-03-01T10:04:32.186Z,13.46
2024-03-01T10:07:06.319Z,13.51
2024-03-01T10:09:51.647Z,13.60
2024-03-01T10:12:35.581Z,13.71
2024-03-01T10:15:05.360Z,13.79
2024-03-01T10:17:49.380Z,13.92
2024-03-01T10:20:26.419Z,13.88
2024-03-01T10:23:11.960Z,14.04
2024-03-01T10:25:48.907Z,14.09
2024-03-01T10:28:32.260Z,14.04
2024-03-01T10:31:12.508Z,14.10
2024-03-01T10:33:54.252Z,14.17
2024-03-01T10:36:30.988Z,14.22
2024-03-01T10:39:05.144Z,14.36
2024-03-01T10:41:49.564Z,14.47
2024-03-01T10:44:22.707Z,14.58
2024-03-01T10:46:56.789Z,14.67
2024-03-01T10:49:30.991Z,14.64
2024-03-01T10:52:04.016Z,14.74
2024-03-01T10:54:35.818Z,14.73
2024-03-01T10:57:09.329Z,14.75
2024-03-01T10:59:48.906Z,14.88
2024-03-01T11:02:22.096Z,14.83
2024-03-01T11:05:03.963Z,14.99
2024-03-01T11:07:44.984Z,15.10
2024-03-01T11:10:21.975Z,15.30
2024-03-01T11:12:53.684Z,15.46
2024-03-01T11:15:22.653Z,15.48
2024-03-01T11:17:52.229Z,15.59
2024-03-01T11:20:23.990Z,15.63
2024-03-01T11:23:00.511Z,15.63
2024-03-01T11:25:36.987Z,15.74
2024-03-01T11:28:06.773Z,15.87
2024-03-01T11:30:46.586Z,15.90
2024-03-01T11:33:17.364Z,15.86
2024-03-01T11:35:48.924Z,15.91
2024-03-01T11:38:28.115Z,16.09
2024-03-01T11:41:11.262Z,16.21
2024-03-01T11:43:52.174Z,16.25
2024-03-01T11:46:36.886Z,16.32
2024-03-01T11:49:17.935Z,16.41
2024-03-01T11:51:59.994Z,16.51
2024-03-01T11:54:48.999Z,16.56
2024-03-01T11:57:31.515Z,16.60
2024-03-01T12:00:13.168Z,16.69
2024-03-01T12:03:06.425Z,16.68
2024-03-01T12:05:51.075Z,16.73
2024-03-01T12:08:35.687Z,16.83
2024-03-01T12:11:17.397Z,16.81
2024-03-01T12:13:54.464Z,16.88
2024-03-01T12:16:35.160Z,17.05
2024-03-01T12:19:15.149Z,17.15
2024-03-01T12:22:01.379Z,17.27
2024-03-01T12:24:38.243Z,17.30
2024-03-01T12:27:13.472Z,17.34
2024-03-01T12:29:51.857Z,17.32
2024-03-01T12:32:26.680Z,17.34
2024-03-01T12:35:10.828Z,17.36
2024-03-01T12:37:51.218Z,17.32
2024-03-01T12:40:21.573Z,17.36
2024-03-01T12:43:21.651Z,17.38
2024-03-01T12:46:23.641Z,17.40
2024-03-01T12:49:00.327Z,17.45
2024-03-01T12:51:32.234Z,17.44
2024-03-01T12:54:03.967Z,17.48
2024-03-01T12:56:49.784Z,17.50
2024-03-01T12:59:34.793Z,17.50
2024-03-01T13:02:32.612Z,17.52
2024-03-01T13:05:14.531Z,17.51
2024-03-01T13:07:43.367Z,17.45
2024-03-01T13:10:15.296Z,17.43
2024-03-01T13:12:46.932Z,17.52
2024-03-01T13:15:19.635Z,17.59
2024-03-01T13:18:01.937Z,17.52
2024-03-01T13:20:32.036Z,17.53
2024-03-01T13:23:20.943Z,17.50
2024-03-01T13:26:07.509Z,17.49
2024-03-01T13:28:41.898Z,17.57
2024-03-01T13:31:16.458Z,17.53
2024-03-01T13:33:48.278Z,17.42
2024-03-01T13:36:24.825Z,17.36
2024-03-01T13:39:11.656Z,17.39
2024-03-01T13:41:41.810Z,17.39
2024-03-01T13:44:24.249Z,17.36
2024-03-01T13:46:58.899Z,17.30
2024-03-01T13:49:38.210Z,17.35
2024-03-01T13:52:08.797Z,17.43
2024-03-01T13:54:37.453Z,17.50
2024-03-01T13:57:07.635Z,17.40
2024-03-01T13:59:37.057Z,17.42
2024-03-01T14:02:06.001Z,17.43
2024-03-01T14:04:34.521Z,17.44
2024-03-01T14:07:02.586Z,17.45
2024-03-01T14:09:30.667Z,17.37
2024-03-01T14:11:58.878Z,17.40
2024-03-01T14:14:27.239Z,17.36
2024-03-01T14:16:59.305Z,17.26
2024-03-01T14:19:27.574Z,17.23
2024-03-01T14:21:57.994Z,17.27
2024-03-01T14:24:26.698Z,17.28
2024-03-01T14:26:54.843Z,17.19
2024-03-01T14:29:22.934Z,17.11
2024-03-01T14:32:11.132Z,17.13
2024-03-01T14:34:40.321Z,17.10
2024-03-01T14:37:11.167Z,17.14
2024-03-01T14:39:40.523Z,17.04
2024-03-01T14:42:18.208Z,17.05
2024-03-01T14:44:46.590Z,16.99
2024-03-01T14:47:16.012Z,16.95
2024-03-01T14:49:44.387Z,16.89
2024-03-01T14:52:13.510Z,16.86
2024-03-01T14:54:41.710Z,16.82
2024-03-01T14:57:09.758Z,16.84
2024-03-01T14:59:38.553Z,16.85
2024-03-01T15:02:06.593Z,16.83
2024-03-01T15:04:36.053Z,16.75
2024-03-01T15:07:05.570Z,16.74
2024-03-01T15:09:45.095Z,16.73
2024-03-01T15:12:13.784Z,16.71
2024-03-01T15:14:41.775Z,16.70
2024-03-01T15:17:10.059Z,16.70
2024-03-01T15:19:44.130Z,16.67
2024-03-01T15:22:13.745Z,16.66
2024-03-01T15:24:42.113Z,16.64
2024-03-01T15:27:10.038Z,16.55
2024-03-01T15:29:38.000Z,16.51
2024-03-01T15:32:07.557Z,16.45
2024-03-01T15:34:35.500Z,16.38
2024-03-01T15:37:05.076Z,16.39
2024-03-01T15:39:33.216Z,16.34
2024-03-01T15:42:01.210Z,16.31
2024-03-01T15:44:29.101Z,16.25
2024-03-01T15:46:57.269Z,16.20
2024-03-01T15:49:25.245Z,16.16
2024-03-01T15:51:54.488Z,16.08
2024-03-01T15:54:24.050Z,15.98
2024-03-01T15:56:51.904Z,15.90
2024-03-01T15:59:19.809Z,15.86
2024-03-01T16:01:48.018Z,15.82
2024-03-01T16:04:16.623Z,15.77
2024-03-01T16:06:44.672Z,15.72
2024-03-01T16:09:13.054Z,15.70
2024-03-01T16:11:44.019Z,15.64
2024-03-01T16:14:13.189Z,15.60
2024-03-01T16:16:42.185Z,15.55
2024-03-01T16:19:11.029Z,15.51
2024-03-01T16:21:40.278Z,15.50
2024-03-01T16:24:10.402Z,15.43
2024-03-01T16:26:38.837Z,15.37
2024-03-01T16:29:09.107Z,15.30
2024-03-01T16:31:37.360Z,15.29
2024-03-01T16:34:05.849Z,15.27
2024-03-01T16:36:33.839Z,15.19
2024-03-01T16:39:02.379Z,15.15
2024-03-01T16:41:40.166Z,15.10
2024-03-01T16:44:24.676Z,15.02
2024-03-01T16:46:52.742Z,14.96
2024-03-01T16:49:37.268Z,14.87
2024-03-01T16:52:07.736Z,14.82
2024-03-01T16:54:36.331Z,14.77
2024-03-01T16:57:08.711Z,14.74
2024-03-01T16:59:39.567Z,14.68
2024-03-01T17:02:21.117Z,14.63
2024-03-01T17:05:13.359Z,14.58
2024-03-01T17:08:01.589Z,14.51
2024-03-01T17:22:30.779Z,14.24
2024-03-01T17:24:58.929Z,14.19
2024-03-01T17:27:26.898Z,14.19
2024-03-01T17:29:54.957Z,14.15
2024-03-01T17:32:23.549Z,14.01
2024-03-01T17:34:51.517Z,13.88
2024-03-01T17:37:20.824Z,13.77
2024-03-01T17:39:50.396Z,13.68
2024-03-01T17:42:19.057Z,13.57
2024-03-01T17:44:47.428Z,13.45
2024-03-01T17:47:15.669Z,13.42
2024-03-01T17:49:43.916Z,13.42
2024-03-01T17:52:12.315Z,13.40
2024-03-01T17:54:40.730Z,13.35
2024-03-01T17:57:12.363Z,13.23
2024-03-01T17:59:40.868Z,13.18
2024-03-01T18:02:08.969Z,13.18
2024-03-01T18:04:39.612Z,13.21
2024-03-01T18:07:07.770Z,13.22
2024-03-01T18:09:35.944Z,13.25
2024-03-01T18:12:04.609Z,13.24
2024-03-01T18:14:34.440Z,13.17
2024-03-01T18:17:02.857Z,13.25
2024-03-01T18:19:31.342Z,13.20
2024-03-01T18:22:01.227Z,13.16
2024-03-01T18:24:31.985Z,13.17
2024-03-01T18:27:00.306Z,13.15
2024-03-01T18:29:30.584Z,13.14
2024-03-01T18:32:01.313Z,13.11
2024-03-01T18:34:29.569Z,13.07
2024-03-01T18:36:57.614Z,13.03
2024-03-01T18:39:25.698Z,12.98
2024-03-01T18:41:53.933Z,12.84
2024-03-01T18:44:21.986Z,12.79
2024-03-01T18:46:50.059Z,12.79
2024-03-01T18:49:20.123Z,12.82
2024-03-01T18:51:48.166Z,12.83
2024-03-01T18:54:16.238Z,12.78
2024-03-01T18:56:44.694Z,12.76
2024-03-01T18:59:14.973Z,12.74
2024-03-01T19:01:43.275Z,12.64
2024-03-01T19:04:11.826Z,12.63
2024-03-01T19:06:41.218Z,12.53
2024-03-01T19:09:09.211Z,12.43
2024-03-01T19:11:37.717Z,12.45
2024-03-01T19:14:06.970Z,12.50
2024-03-01T19:16:35.094Z,12.53
2024-03-01T19:19:04.465Z,12.55
2024-03-01T19:21:32.779Z,12.59
2024-03-01T19:24:02.212Z,12.61
2024-03-01T19:26:30.411Z,12.63
2024-03-01T19:29:00.008Z,12.60
2024-03-01T19:31:28.117Z,12.68
2024-03-01T19:33:56.853Z,12.67
2024-03-01T19:36:24.899Z,12.66
2024-03-01T19:38:53.028Z,12.65
2024-03-01T19:41:22.660Z,12.65
2024-03-01T19:43:50.716Z,12.63
2024-03-01T19:46:18.869Z,12.62
2024-03-01T19:48:48.474Z,12.65
2024-03-01T19:51:17.280Z,12.65
2024-03-01T19:53:45.267Z,12.62
2024-03-01T19:56:13.708Z,12.60
2024-03-01T19:58:43.014Z,12.56
2024-03-01T20:01:11.100Z,12.51
2024-03-01T20:03:39.441Z,12.49
2024-03-01T20:06:07.477Z,12.35
2024-03-01T20:08:35.635Z,12.27
2024-03-01T20:11:05.697Z,12.14
2024-03-01T20:13:33.771Z,12.02
2024-03-01T20:16:03.215Z,11.95
2024-03-01T20:18:31.544Z,11.90
2024-03-01T20:21:00.363Z,11.85
2024-03-01T20:23:30.563Z,11.88
2024-03-01T20:26:00.348Z,11.87
2024-03-01T20:28:28.350Z,11.88
2024-03-01T20:30:56.437Z,11.82
2024-03-01T20:33:26.210Z,11.74
2024-03-01T20:35:54.680Z,11.68
2024-03-01T20:38:23.082Z,11.59
2024-03-01T20:40:52.941Z,11.51
2024-03-01T20:43:21.448Z,11.39
2024-03-01T20:45:49.824Z,11.46
2024-03-01T20:48:18.044Z,11.46
2024-03-01T20:50:48.029Z,11.45
2024-03-01T20:53:15.966Z,11.41
2024-03-01T20:55:44.230Z,11.39
2024-03-01T20:58:14.025Z,11.37
2024-03-01T21:00:42.166Z,11.34
2024-03-01T21:03:10.459Z,11.32
2024-03-01T21:05:38.449Z,11.29
2024-03-01T21:08:08.705Z,11.25
2024-03-01T21:10:37.643Z,11.13
2024-03-01T21:13:08.348Z,11.08
2024-03-01T21:15:36.692Z,11.04
2024-03-01T21:18:06.090Z,11.01
2024-03-01T21:20:34.501Z,10.95
2024-03-01T21:23:02.813Z,10.89
2024-03-01T21:25:32.221Z,10.80
2024-03-01T21:28:00.264Z,10.79
2024-03-01T21:30:29.546Z,10.77
2024-03-01T21:33:00.482Z,10.72
2024-03-01T21:35:28.889Z,10.67
2024-03-01T21:37:57.105Z,10.55
2024-03-01T21:40:25.834Z,10.44
2024-03-01T21:42:55.478Z,10.39
2024-03-01T21:45:23.747Z,10.34
2024-03-01T21:47:51.834Z,10.28
2024-03-01T21:50:20.309Z,10.27
2024-03-01T21:52:49.647Z,10.33
2024-03-01T21:55:19.266Z,10.38
2024-03-01T21:57:47.829Z,10.44
2024-03-01T22:00:17.850Z,10.48
2024-03-01T22:02:46.213Z,10.48
2024-03-01T22:05:14.330Z,10.50
2024-03-01T22:07:45.059Z,10.54
2024-03-01T22:10:15.558Z,10.57
2024-03-01T22:12:43.763Z,10.64
2024-03-01T22:15:12.024Z,10.73
2024-03-01T22:17:41.670Z,10.74
2024-03-01T22:20:10.792Z,10.79
2024-03-01T22:22:38.864Z,10.80
2024-03-01T22:25:08.025Z,10.80
2024-03-01T22:27:36.664Z,10.81
2024-03-01T22:30:07.366Z,10.81
2024-03-01T22:32:35.927Z,10.86
2024-03-01T22:35:05.932Z,10.81
2024-03-01T22:37:37.804Z,10.84
2024-03-01T22:40:07.515Z,10.87
2024-03-01T22:42:36.866Z,10.95
2024-03-01T22:45:06.187Z,10.99
2024-03-01T22:47:34.540Z,11.02
2024-03-01T22:50:02.817Z,11.07
2024-03-01T22:52:33.883Z,11.08
2024-03-01T22:55:02.517Z,11.11
2024-03-01T22:57:37.578Z,11.10
2024-03-01T23:00:20.446Z,11.08
2024-03-01T23:02:52.101Z,11.17
2024-03-01T23:05:48.609Z,11.20
2024-03-01T23:08:40.981Z,11.26
2024-03-01T23:11:34.649Z,11.30
2024-03-01T23:14:04.245Z,11.28
2024-03-01T23:16:32.567Z,11.30
2024-03-01T23:19:00.927Z,11.33
2024-03-01T23:21:29.294Z,11.29
2024-03-01T23:23:59.523Z,11.25
2024-03-01T23:26:27.621Z,11.22
2024-03-01T23:28:55.936Z,11.22
2024-03-01T23:31:24.251Z,11.24
2024-03-01T23:33:52.658Z,11.23
2024-03-01T23:36:20.720Z,11.26
2024-03-01T23:38:51.832Z,11.23
2024-03-01T23:41:21.314Z,11.25
2024-03-01T23:43:49.557Z,11.26
2024-03-01T23:46:17.657Z,11.29
2024-03-01T23:48:45.747Z,11.32
2024-03-01T23:51:14.176Z,11.35
2024-03-01T23:53:43.061Z,11.36
2024-03-01T23:56:11.173Z,11.37
2024-03-01T23:58:41.835Z,11.37
